Terminal Aerodrome Forecast
Issued by NWS

Home | Current Version | Previous Version | Text Only | Print | Product List | Glossary On
Versions: 1 2 3 4 5 6 7 8 9 10 11 12 13 14
000
FTUS43 KDTX 271738
TAFMBS
TAF
KMBS 271738Z 2718/2818 32012G20KT P6SM SCT015 BKN025
      TEMPO 2718/2720 5SM -SHSN BKN015
     FM272200 32011G19KT P6SM BKN030 OVC050
     FM280300 29008KT P6SM SCT050
     FM281400 24006KT P6SM OVC150=

USA.gov is the U.S. government's official web portal to all federal, state and local government web resources and services.